createdAt,value
2023-04-09T00:01:24.204Z,99.90
2023-04-09T00:03:53.411Z,99.90
2023-04-09T00:06:22.435Z,99.90
2023-04-09T00:08:51.555Z,99.90
2023-04-09T00:11:21.081Z,99.90
2023-04-09T00:13:50.119Z,99.90
2023-04-09T00:16:21.009Z,99.90
2023-04-09T00:18:50.189Z,99.90
2023-04-09T00:21:20.845Z,99.90
2023-04-09T00:23:50.038Z,99.90
2023-04-09T00:26:19.120Z,99.90
2023-04-09T00:28:48.796Z,99.90
2023-04-09T00:31:19.435Z,99.90
2023-04-09T00:33:51.544Z,99.90
2023-04-09T00:36:21.117Z,99.90
2023-04-09T00:38:52.151Z,99.90
2023-04-09T00:41:21.687Z,99.90
2023-04-09T00:43:51.062Z,99.90
2023-04-09T00:46:20.395Z,99.90
2023-04-09T00:48:51.676Z,99.90
2023-04-09T00:51:20.865Z,99.90
2023-04-09T00:53:50.426Z,99.90
2023-04-09T00:56:20.329Z,99.90
2023-04-09T00:58:51.297Z,99.90
2023-04-09T01:01:21.195Z,99.90
2023-04-09T01:03:52.509Z,99.90
2023-04-09T01:06:29.757Z,99.90
2023-04-09T01:09:04.169Z,99.90
2023-04-09T01:11:40.510Z,99.90
2023-04-09T01:14:16.276Z,99.90
2023-04-09T01:16:49.813Z,99.90
2023-04-09T01:19:33.277Z,99.90
2023-04-09T01:22:04.325Z,99.90
2023-04-09T01:24:46.414Z,99.90
2023-04-09T01:27:22.413Z,99.90
2023-04-09T01:30:00.224Z,99.90
2023-04-09T01:32:32.945Z,99.90
2023-04-09T01:35:03.160Z,99.90
2023-04-09T01:37:32.271Z,99.90
2023-04-09T01:40:01.956Z,99.90
2023-04-09T01:42:31.666Z,99.90
2023-04-09T01:45:03.361Z,99.90
2023-04-09T01:47:33.618Z,99.90
2023-04-09T01:50:03.998Z,99.90
2023-04-09T01:52:33.471Z,99.90
2023-04-09T01:55:02.813Z,99.90
2023-04-09T01:57:32.887Z,99.90
2023-04-09T02:00:04.153Z,99.90
2023-04-09T02:02:50.588Z,99.90
2023-04-09T02:05:20.639Z,99.90
2023-04-09T02:07:54.438Z,99.90
2023-04-09T02:10:26.082Z,99.90
2023-04-09T02:12:56.603Z,99.90
2023-04-09T02:15:30.186Z,99.90
2023-04-09T02:17:59.483Z,99.90
2023-04-09T02:20:29.194Z,99.90
2023-04-09T02:22:58.835Z,99.90
2023-04-09T02:25:29.172Z,99.90
2023-04-09T02:27:58.840Z,99.90
2023-04-09T02:30:30.095Z,99.90
2023-04-09T02:32:59.966Z,99.90
2023-04-09T02:35:29.652Z,99.90
2023-04-09T02:37:59.036Z,99.90
2023-04-09T02:40:28.232Z,99.90
2023-04-09T02:42:57.315Z,99.90
2023-04-09T02:45:26.841Z,99.90
2023-04-09T02:47:57.880Z,99.90
2023-04-09T02:50:28.431Z,99.90
2023-04-09T02:52:58.800Z,99.90
2023-04-09T02:55:27.844Z,99.90
2023-04-09T02:57:57.389Z,99.90
2023-04-09T03:00:26.792Z,99.90
2023-04-09T03:02:59.274Z,99.90
2023-04-09T03:05:28.643Z,99.90
2023-04-09T03:07:58.000Z,99.90
2023-04-09T03:10:27.268Z,99.90
2023-04-09T03:12:56.562Z,99.90
2023-04-09T03:15:26.205Z,99.90
2023-04-09T03:17:55.498Z,99.90
2023-04-09T03:20:26.121Z,99.90
2023-04-09T03:22:55.157Z,99.90
2023-04-09T03:25:32.242Z,99.90
2023-04-09T03:28:09.164Z,99.90
2023-04-09T03:30:43.728Z,99.90
2023-04-09T03:33:13.601Z,99.90
2023-04-09T03:36:02.636Z,99.90
2023-04-09T03:38:42.693Z,99.90
2023-04-09T03:41:24.446Z,99.90
2023-04-09T03:43:53.993Z,99.90
2023-04-09T03:46:27.792Z,99.90
2023-04-09T03:48:59.407Z,99.90
2023-04-09T03:51:38.999Z,99.90
2023-04-09T03:54:08.269Z,99.90
2023-04-09T03:56:37.517Z,99.90
2023-04-09T03:59:10.552Z,99.90
2023-04-09T04:01:43.043Z,99.90
2023-04-09T04:04:12.585Z,99.90
2023-04-09T04:07:26.253Z,99.90
2023-04-09T04:10:01.213Z,99.90
2023-04-09T04:12:33.337Z,99.90
2023-04-09T04:15:10.692Z,99.90
2023-04-09T04:17:46.153Z,99.90
2023-04-09T04:20:39.294Z,99.90
2023-04-09T04:23:14.390Z,99.90
2023-04-09T04:25:53.388Z,99.90
2023-04-09T04:28:29.858Z,99.90
2023-04-09T04:30:59.137Z,99.90
2023-04-09T04:33:30.933Z,99.90
2023-04-09T04:36:07.209Z,99.90
2023-04-09T04:38:45.084Z,99.90
2023-04-09T04:41:33.183Z,99.90
2023-04-09T04:44:16.337Z,99.90
2023-04-09T04:46:45.816Z,99.90
2023-04-09T04:49:14.810Z,99.90
2023-04-09T04:51:49.194Z,99.90
2023-04-09T04:54:20.932Z,99.90
2023-04-09T04:56:57.250Z,99.90
2023-04-09T04:59:35.127Z,99.90
2023-04-09T05:02:07.425Z,99.90
2023-04-09T05:04:47.085Z,99.90
2023-04-09T05:07:18.933Z,99.90
2023-04-09T05:09:54.763Z,99.90
2023-04-09T05:12:24.002Z,99.90
2023-04-09T05:14:55.209Z,99.90
2023-04-09T05:17:24.972Z,99.90
2023-04-09T05:19:54.281Z,99.90
2023-04-09T05:22:30.162Z,99.90
2023-04-09T05:25:03.647Z,99.90
2023-04-09T05:27:34.256Z,99.90
2023-04-09T05:30:04.843Z,99.90
2023-04-09T05:32:34.614Z,99.90
2023-04-09T05:35:03.773Z,99.90
2023-04-09T05:37:34.530Z,99.90
2023-04-09T05:40:05.765Z,99.90
2023-04-09T05:42:35.428Z,99.90
2023-04-09T05:45:09.861Z,99.90
2023-04-09T05:47:40.871Z,99.90
2023-04-09T05:50:18.894Z,99.90
2023-04-09T05:52:50.380Z,99.90
2023-04-09T05:55:21.252Z,99.90
2023-04-09T05:57:55.902Z,99.90
2023-04-09T06:00:25.049Z,99.90
2023-04-09T06:02:54.054Z,99.90
2023-04-09T06:05:23.199Z,99.90
2023-04-09T06:07:52.386Z,99.90
2023-04-09T06:10:23.372Z,99.90
2023-04-09T06:12:52.412Z,99.90
2023-04-09T06:15:22.059Z,99.90
2023-04-09T06:17:51.289Z,99.90
2023-04-09T06:20:20.530Z,99.90
2023-04-09T06:22:49.975Z,99.90
2023-04-09T06:25:18.981Z,99.90
2023-04-09T06:27:49.530Z,99.90
2023-04-09T06:30:18.700Z,99.90
2023-04-09T06:32:54.315Z,99.90
2023-04-09T06:35:24.405Z,99.90
2023-04-09T06:37:53.460Z,99.90
2023-04-09T06:40:23.612Z,99.90
2023-04-09T06:42:54.257Z,99.90
2023-04-09T06:45:29.990Z,99.90
2023-04-09T06:47:59.098Z,99.90
2023-04-09T06:50:28.329Z,99.90
2023-04-09T06:52:57.876Z,99.90
2023-04-09T06:55:27.287Z,99.90
2023-04-09T06:58:10.015Z,99.90
2023-04-09T07:00:40.535Z,99.90
2023-04-09T07:03:09.905Z,99.90
2023-04-09T07:05:38.938Z,99.90
2023-04-09T07:08:09.378Z,99.90
2023-04-09T07:10:38.697Z,99.90
2023-04-09T07:13:09.310Z,99.90
2023-04-09T07:15:40.011Z,99.90
2023-04-09T07:18:10.969Z,99.90
2023-04-09T07:20:40.107Z,99.90
2023-04-09T07:23:09.174Z,99.90
2023-04-09T07:25:38.442Z,99.90
2023-04-09T07:28:09.048Z,99.90
2023-04-09T07:30:53.297Z,99.90
2023-04-09T07:33:22.452Z,99.90
2023-04-09T07:35:51.982Z,99.90
2023-04-09T07:38:22.265Z,99.90
2023-04-09T07:40:51.475Z,99.90
2023-04-09T07:43:22.810Z,99.90
2023-04-09T07:45:52.023Z,99.90
2023-04-09T07:48:21.349Z,99.90
2023-04-09T07:50:50.411Z,99.90
2023-04-09T07:53:19.380Z,99.90
2023-04-09T07:55:49.106Z,99.90
2023-04-09T07:58:18.094Z,99.90
2023-04-09T08:00:49.667Z,99.90
2023-04-09T08:03:21.759Z,99.90
2023-04-09T08:06:00.503Z,99.90
2023-04-09T08:08:29.500Z,99.90
2023-04-09T08:10:58.503Z,99.90
2023-04-09T08:13:27.863Z,99.90
2023-04-09T08:16:01.849Z,99.90
2023-04-09T08:18:31.067Z,99.90
2023-04-09T08:20:59.979Z,99.90
2023-04-09T08:23:30.099Z,99.90
2023-04-09T08:25:59.698Z,99.90
2023-04-09T08:28:28.774Z,99.90
2023-04-09T08:30:59.381Z,99.90
2023-04-09T08:33:28.437Z,99.90
2023-04-09T08:35:57.525Z,99.90
2023-04-09T08:38:26.716Z,99.90
2023-04-09T08:40:55.834Z,99.90
2023-04-09T08:43:30.030Z,99.90
2023-04-09T08:46:13.603Z,99.90
2023-04-09T08:48:45.247Z,99.90
2023-04-09T08:51:18.681Z,99.90
2023-04-09T08:53:48.488Z,99.90
2023-04-09T08:56:17.655Z,99.90
2023-04-09T08:58:48.125Z,99.90
2023-04-09T09:01:40.837Z,99.90
2023-04-09T09:04:11.726Z,99.90
2023-04-09T09:06:42.284Z,99.90
2023-04-09T09:09:17.307Z,99.90
2023-04-09T09:11:50.437Z,99.90
2023-04-09T09:14:21.179Z,99.90
2023-04-09T09:19:46.967Z,99.90
2023-04-09T09:22:16.135Z,99.90
2023-04-09T09:24:50.275Z,99.90
2023-04-09T09:27:37.141Z,99.90
2023-04-09T09:30:09.046Z,99.90
2023-04-09T09:32:38.517Z,99.90
2023-04-09T09:35:10.163Z,99.90
2023-04-09T09:37:39.250Z,99.90
2023-04-09T09:40:10.166Z,99.90
2023-04-09T09:42:43.005Z,99.90
2023-04-09T09:45:20.926Z,98.60
2023-04-09T09:47:51.590Z,99.90
2023-04-09T09:50:24.693Z,99.90
2023-04-09T09:52:58.613Z,99.90
2023-04-09T09:55:32.291Z,99.90
2023-04-09T09:58:05.194Z,99.90
2023-04-09T10:00:35.498Z,99.90
2023-04-09T10:03:13.537Z,99.90
2023-04-09T10:05:44.502Z,99.90
2023-04-09T10:08:14.740Z,99.90
2023-04-09T10:10:44.573Z,99.90
2023-04-09T10:13:27.229Z,99.90
2023-04-09T10:16:03.261Z,99.90
2023-04-09T10:18:33.762Z,99.90
2023-04-09T10:21:12.498Z,99.90
2023-04-09T10:23:43.786Z,99.90
2023-04-09T10:26:13.668Z,99.90
2023-04-09T10:28:42.954Z,99.90
2023-04-09T10:31:12.378Z,99.90
2023-04-09T10:33:41.676Z,99.90
2023-04-09T10:36:14.708Z,99.90
2023-04-09T10:38:48.620Z,99.90
2023-04-09T10:41:23.954Z,99.90
2023-04-09T10:43:53.201Z,99.90
2023-04-09T10:46:31.203Z,99.90
2023-04-09T10:49:13.914Z,99.90
2023-04-09T10:51:49.771Z,99.90
2023-04-09T10:54:44.176Z,99.90
2023-04-09T10:57:19.877Z,99.90
2023-04-09T10:59:51.078Z,99.90
2023-04-09T11:02:59.821Z,99.90
2023-04-09T11:05:34.417Z,99.90
2023-04-09T11:08:09.822Z,99.90
2023-04-09T11:10:38.937Z,99.90
2023-04-09T11:13:08.652Z,99.90
2023-04-09T11:15:38.325Z,99.90
2023-04-09T11:18:10.115Z,99.90
2023-04-09T11:20:40.088Z,99.90
2023-04-09T11:23:12.365Z,99.90
2023-04-09T11:25:41.685Z,99.90
2023-04-09T11:28:10.762Z,99.90
2023-04-09T11:30:40.128Z,99.90
2023-04-09T11:33:09.455Z,99.90
2023-04-09T11:35:38.985Z,99.90
2023-04-09T11:38:10.722Z,99.90
2023-04-09T11:40:48.464Z,99.90
2023-04-09T11:43:18.908Z,99.90
2023-04-09T11:45:48.937Z,99.90
2023-04-09T11:48:19.624Z,99.90
2023-04-09T11:50:49.591Z,99.90
2023-04-09T11:53:24.918Z,99.90
2023-04-09T11:55:54.668Z,99.90
2023-04-09T11:58:25.870Z,99.90
2023-04-09T12:00:58.282Z,99.90
2023-04-09T12:03:33.425Z,99.90
2023-04-09T12:06:04.211Z,99.90
2023-04-09T12:08:36.648Z,99.90
2023-04-09T12:11:12.370Z,99.90
2023-04-09T12:13:43.717Z,99.90
2023-04-09T12:16:13.575Z,99.90
2023-04-09T12:18:42.874Z,99.90
2023-04-09T12:21:12.024Z,99.90
2023-04-09T12:23:43.117Z,99.90
2023-04-09T12:26:12.727Z,99.90
2023-04-09T12:28:41.988Z,99.90
2023-04-09T12:31:12.237Z,99.90
2023-04-09T12:33:41.626Z,99.90
2023-04-09T12:36:46.077Z,99.90
2023-04-09T12:39:22.596Z,99.90
2023-04-09T12:41:54.774Z,99.90
2023-04-09T12:44:26.737Z,99.90
2023-04-09T12:46:56.586Z,99.90
2023-04-09T12:49:26.012Z,99.90
2023-04-09T12:51:55.157Z,99.90
2023-04-09T12:54:26.623Z,99.90
2023-04-09T12:56:55.747Z,99.90
2023-04-09T12:59:25.227Z,99.90
2023-04-09T13:01:54.408Z,99.90
2023-04-09T13:04:23.816Z,99.90
2023-04-09T13:06:53.082Z,99.90
2023-04-09T13:09:22.343Z,99.90
2023-04-09T13:11:53.643Z,98.90
2023-04-09T13:14:22.632Z,98.20
2023-04-09T13:16:52.911Z,99.90
2023-04-09T13:19:22.413Z,99.90
2023-04-09T13:21:51.636Z,99.90
2023-04-09T13:24:21.073Z,99.90
2023-04-09T13:26:51.775Z,99.90
2023-04-09T13:29:21.008Z,99.90
2023-04-09T13:31:50.362Z,98.20
2023-04-09T13:34:38.165Z,95.40
2023-04-09T13:37:10.288Z,96.50
2023-04-09T13:39:39.525Z,97.00
2023-04-09T13:42:13.598Z,99.90
2023-04-09T13:44:45.481Z,99.30
2023-04-09T13:47:16.330Z,97.40
2023-04-09T13:49:45.813Z,99.70
2023-04-09T13:52:15.899Z,98.20
2023-04-09T13:54:45.293Z,99.90
2023-04-09T13:57:17.087Z,99.60
2023-04-09T13:59:46.126Z,99.30
2023-04-09T14:02:15.557Z,99.00
2023-04-09T14:04:45.106Z,99.90
2023-04-09T14:07:14.523Z,99.90
2023-04-09T14:09:44.627Z,98.90
2023-04-09T14:12:15.853Z,97.60
2023-04-09T14:14:45.112Z,99.50
2023-04-09T14:17:14.361Z,98.60
2023-04-09T14:19:44.203Z,99.90
2023-04-09T14:22:13.494Z,99.90
2023-04-09T14:24:42.801Z,99.10
2023-04-09T14:27:12.232Z,99.60
2023-04-09T14:29:43.030Z,98.70
2023-04-09T14:32:12.769Z,98.50
2023-04-09T14:34:42.082Z,99.40
2023-04-09T14:37:11.551Z,97.70
2023-04-09T14:39:40.614Z,99.00
2023-04-09T14:42:09.720Z,99.30
2023-04-09T14:44:39.214Z,99.90
2023-04-09T14:47:09.920Z,99.90
2023-04-09T14:49:39.031Z,99.90
2023-04-09T14:52:08.311Z,99.60
2023-04-09T14:54:38.210Z,99.10
2023-04-09T14:57:07.531Z,99.20
2023-04-09T14:59:37.006Z,99.90
2023-04-09T15:02:06.533Z,99.70
2023-04-09T15:04:47.758Z,99.90
2023-04-09T15:07:17.364Z,99.90
2023-04-09T15:09:46.963Z,99.50
2023-04-09T15:12:16.378Z,98.40
2023-04-09T15:14:45.631Z,99.90
2023-04-09T15:17:14.996Z,98.00
2023-04-09T15:19:44.118Z,99.20
2023-04-09T15:22:15.135Z,99.10
2023-04-09T15:24:44.974Z,99.90
2023-04-09T15:27:14.410Z,98.30
2023-04-09T15:29:43.762Z,98.60
2023-04-09T15:32:13.614Z,99.90
2023-04-09T15:34:42.664Z,98.80
2023-04-09T15:37:11.974Z,99.90
2023-04-09T15:39:42.525Z,97.70
2023-04-09T15:42:14.197Z,97.90
2023-04-09T15:44:43.976Z,96.70
2023-04-09T15:47:13.032Z,98.40
2023-04-09T15:49:42.251Z,99.90
2023-04-09T15:52:11.411Z,97.90
2023-04-09T15:54:42.444Z,97.70
2023-04-09T15:57:11.472Z,94.80
2023-04-09T15:59:40.684Z,94.20
2023-04-09T16:02:09.875Z,94.70
2023-04-09T16:04:39.406Z,99.10
2023-04-09T16:07:09.718Z,97.60
2023-04-09T16:09:39.132Z,97.30
2023-04-09T16:12:09.893Z,96.40
2023-04-09T16:14:40.606Z,95.90
2023-04-09T16:17:10.808Z,93.60
2023-04-09T16:19:40.130Z,92.90
2023-04-09T16:22:09.250Z,97.30
2023-04-09T16:24:38.509Z,97.50
2023-04-09T16:27:09.186Z,98.40
2023-04-09T16:29:38.445Z,97.80
2023-04-09T16:32:07.961Z,97.90
2023-04-09T16:34:37.892Z,99.90
2023-04-09T16:37:07.840Z,96.10
2023-04-09T16:39:37.176Z,95.90
2023-04-09T16:42:06.572Z,97.20
2023-04-09T16:44:37.197Z,97.20
2023-04-09T16:47:08.644Z,97.90
2023-04-09T16:49:38.754Z,99.60
2023-04-09T16:52:08.080Z,99.90
2023-04-09T16:54:37.431Z,99.40
2023-04-09T16:57:07.253Z,99.70
2023-04-09T16:59:38.135Z,99.20
2023-04-09T17:02:07.657Z,99.90
2023-04-09T17:04:38.378Z,99.90
2023-04-09T17:07:07.625Z,99.90
2023-04-09T17:09:36.764Z,99.90
2023-04-09T17:12:06.011Z,99.90
2023-04-09T17:14:37.425Z,99.90
2023-04-09T17:17:07.551Z,99.20
2023-04-09T17:19:37.213Z,99.90
2023-04-09T17:22:07.795Z,99.90
2023-04-09T17:24:37.317Z,99.90
2023-04-09T17:27:06.575Z,99.90
2023-04-09T17:29:37.244Z,99.90
2023-04-09T17:32:06.856Z,99.90
2023-04-09T17:34:36.062Z,99.90
2023-04-09T17:37:05.522Z,99.90
2023-04-09T17:39:34.714Z,99.90
2023-04-09T17:42:05.341Z,99.90
2023-04-09T17:44:35.731Z,99.90
2023-04-09T17:47:07.607Z,99.90
2023-04-09T17:49:37.042Z,99.90
2023-04-09T17:52:06.557Z,99.90
2023-04-09T17:54:36.027Z,99.90
2023-04-09T17:57:05.286Z,99.90
2023-04-09T17:59:34.747Z,99.90
2023-04-09T18:02:06.257Z,99.90
2023-04-09T18:04:36.624Z,99.90
2023-04-09T18:07:06.460Z,99.90
2023-04-09T18:09:35.406Z,99.90
2023-04-09T18:12:04.631Z,99.90
2023-04-09T18:14:33.598Z,99.90
2023-04-09T18:17:02.727Z,99.90
2023-04-09T18:19:33.238Z,99.90
2023-04-09T18:22:02.335Z,99.90
2023-04-09T18:24:33.073Z,99.90
2023-04-09T18:27:02.624Z,99.90
2023-04-09T18:29:32.699Z,99.90
2023-04-09T18:32:02.044Z,99.90
2023-04-09T18:34:32.529Z,99.90
2023-04-09T18:37:01.737Z,99.90
2023-04-09T18:39:31.159Z,99.90
2023-04-09T18:42:00.243Z,99.90
2023-04-09T18:44:29.637Z,99.90
2023-04-09T18:47:00.083Z,99.90
2023-04-09T18:49:29.516Z,99.90
2023-04-09T18:52:00.189Z,99.90
2023-04-09T18:54:29.558Z,99.90
2023-04-09T18:56:59.124Z,99.90
2023-04-09T18:59:28.794Z,99.90
2023-04-09T19:01:58.849Z,99.90
2023-04-09T19:04:28.720Z,99.90
2023-04-09T19:06:59.284Z,99.90
2023-04-09T19:09:28.685Z,99.90
2023-04-09T19:11:58.399Z,99.90
2023-04-09T19:14:27.842Z,99.90
2023-04-09T19:16:57.439Z,99.90
2023-04-09T19:19:26.754Z,99.90
2023-04-09T19:21:56.184Z,99.90
2023-04-09T19:24:27.526Z,99.90
2023-04-09T19:26:56.880Z,99.90
2023-04-09T19:29:26.095Z,99.90
2023-04-09T19:31:55.247Z,99.90
2023-04-09T19:34:24.489Z,99.90
2023-04-09T19:36:53.534Z,99.90
2023-04-09T19:39:22.733Z,99.90
2023-04-09T19:41:53.397Z,99.90
2023-04-09T19:44:22.562Z,99.90
2023-04-09T19:46:51.721Z,99.90
2023-04-09T19:49:21.143Z,99.90
2023-04-09T19:51:51.914Z,99.90
2023-04-09T19:54:21.158Z,99.90
2023-04-09T19:56:50.116Z,99.90
2023-04-09T19:59:21.076Z,99.90
2023-04-09T20:01:50.403Z,99.90
2023-04-09T20:04:19.521Z,99.90
2023-04-09T20:06:51.868Z,99.90
2023-04-09T20:09:24.085Z,99.90
2023-04-09T20:11:54.159Z,99.90
2023-04-09T20:14:24.799Z,99.90
2023-04-09T20:16:54.081Z,99.90
2023-04-09T20:19:23.671Z,99.90
2023-04-09T20:21:53.031Z,99.90
2023-04-09T20:24:22.995Z,99.90
2023-04-09T20:26:52.644Z,99.90
2023-04-09T20:29:21.998Z,99.90
2023-04-09T20:31:52.419Z,99.90
2023-04-09T20:34:26.818Z,99.90
2023-04-09T20:36:56.165Z,99.90
2023-04-09T20:39:27.415Z,99.90
2023-04-09T20:41:57.036Z,99.90
2023-04-09T20:44:26.376Z,99.90
2023-04-09T20:46:57.355Z,99.90
2023-04-09T20:49:26.403Z,99.90
2023-04-09T20:51:55.345Z,99.90
2023-04-09T20:54:24.203Z,99.90
2023-04-09T20:56:53.559Z,99.90
2023-04-09T20:59:23.950Z,99.90
2023-04-09T21:01:54.138Z,99.90
2023-04-09T21:04:25.817Z,99.90
2023-04-09T21:06:55.229Z,99.90
2023-04-09T21:09:24.952Z,99.90
2023-04-09T21:11:53.994Z,99.90
2023-04-09T21:14:23.121Z,99.90
2023-04-09T21:16:52.767Z,99.90
2023-04-09T21:19:23.678Z,99.90
2023-04-09T21:21:52.868Z,99.90
2023-04-09T21:24:22.116Z,99.90
2023-04-09T21:26:52.268Z,99.90
2023-04-09T21:29:22.641Z,99.90
2023-04-09T21:31:51.653Z,99.90
2023-04-09T21:34:20.737Z,99.90
2023-04-09T21:36:51.603Z,99.90
2023-04-09T21:39:21.432Z,99.90
2023-04-09T21:41:51.045Z,99.90
2023-04-09T21:44:20.916Z,99.90
2023-04-09T21:46:50.283Z,99.90
2023-04-09T21:49:19.523Z,99.90
2023-04-09T21:51:48.926Z,99.90
2023-04-09T21:54:19.526Z,99.90
2023-04-09T21:56:48.740Z,99.90
2023-04-09T21:59:17.917Z,99.90
2023-04-09T22:01:49.908Z,99.90
2023-04-09T22:04:19.510Z,99.90
2023-04-09T22:06:48.642Z,99.90
2023-04-09T22:09:19.559Z,99.90
2023-04-09T22:11:48.772Z,99.90
2023-04-09T22:14:19.458Z,99.90
2023-04-09T22:16:49.303Z,99.90
2023-04-09T22:19:18.531Z,99.90
2023-04-09T22:21:50.854Z,99.90
2023-04-09T22:24:27.013Z,99.90
2023-04-09T22:26:57.256Z,99.90
2023-04-09T22:29:26.468Z,99.90
2023-04-09T22:31:55.937Z,99.90
2023-04-09T22:34:25.423Z,99.90
2023-04-09T22:36:54.536Z,99.90
2023-04-09T22:39:25.214Z,99.90
2023-04-09T22:41:54.375Z,99.90
2023-04-09T22:44:23.441Z,99.90
2023-04-09T22:46:52.857Z,99.90
2023-04-09T22:49:23.926Z,99.90
2023-04-09T22:51:54.147Z,99.90
2023-04-09T22:54:25.492Z,99.90
2023-04-09T22:56:54.765Z,99.90
2023-04-09T22:59:30.292Z,99.90
2023-04-09T23:02:03.016Z,99.90
2023-04-09T23:04:32.099Z,99.90
2023-04-09T23:07:01.085Z,99.90
2023-04-09T23:09:32.411Z,99.90
2023-04-09T23:12:01.769Z,99.90
2023-04-09T23:14:30.807Z,99.90
2023-04-09T23:16:59.718Z,99.90
2023-04-09T23:19:28.713Z,99.90
2023-04-09T23:21:57.684Z,99.90
2023-04-09T23:24:26.963Z,99.90
2023-04-09T23:26:58.155Z,99.90
2023-04-09T23:29:27.392Z,99.90
2023-04-09T23:31:56.959Z,99.90
2023-04-09T23:34:26.284Z,99.90
2023-04-09T23:36:55.441Z,99.90
2023-04-09T23:39:24.477Z,99.90
2023-04-09T23:41:53.727Z,99.90
2023-04-09T23:44:24.729Z,99.90
2023-04-09T23:46:53.887Z,99.90
2023-04-09T23:49:22.973Z,99.90
2023-04-09T23:51:53.214Z,99.90
2023-04-09T23:54:22.321Z,99.90
2023-04-09T23:56:51.527Z,99.90
2023-04-09T23:59:20.680Z,99.90
